sensor_id;sensor_type;location;lat;lon;timestamp;pressure;altitude;pressure_sealevel;temperature;humidity
77062;BME280;65989;51.686;5.138;2023-04-01T00:01:51;99216.22;;;9.03;96.89
77062;BME280;65989;51.686;5.138;2023-04-01T00:04:17;99223.66;;;9.01;96.75
77062;BME280;65989;51.686;5.138;2023-04-01T00:06:42;99218.38;;;9.01;97.21
77062;BME280;65989;51.686;5.138;2023-04-01T00:09:08;99223.91;;;9.05;96.98
77062;BME280;65989;51.686;5.138;2023-04-01T00:11:33;99235.22;;;9.05;96.97
77062;BME280;65989;51.686;5.138;2023-04-01T00:13:58;99230.25;;;9.04;96.78
77062;BME280;65989;51.686;5.138;2023-04-01T00:16:24;99229.94;;;9.05;96.91
77062;BME280;65989;51.686;5.138;2023-04-01T00:18:50;99232.31;;;9.07;96.90
77062;BME280;65989;51.686;5.138;2023-04-01T00:21:16;99234.16;;;9.06;96.94
77062;BME280;65989;51.686;5.138;2023-04-01T00:23:41;99243.66;;;9.07;97.00
77062;BME280;65989;51.686;5.138;2023-04-01T00:26:07;99236.81;;;9.06;96.94
77062;BME280;65989;51.686;5.138;2023-04-01T00:28:34;99239.19;;;9.08;97.15
77062;BME280;65989;51.686;5.138;2023-04-01T00:31:04;99245.53;;;9.07;97.16
77062;BME280;65989;51.686;5.138;2023-04-01T00:33:29;99239.97;;;9.08;97.19
77062;BME280;65989;51.686;5.138;2023-04-01T00:35:55;99245.25;;;9.08;97.11
77062;BME280;65989;51.686;5.138;2023-04-01T00:38:21;99253.16;;;9.08;97.27
77062;BME280;65989;51.686;5.138;2023-04-01T00:40:47;99246.03;;;9.09;97.26
77062;BME280;65989;51.686;5.138;2023-04-01T00:43:18;99259.16;;;9.14;97.40
77062;BME280;65989;51.686;5.138;2023-04-01T00:45:47;99252.81;;;9.15;97.21
77062;BME280;65989;51.686;5.138;2023-04-01T00:48:17;99257.91;;;9.11;97.27
77062;BME280;65989;51.686;5.138;2023-04-01T00:50:48;99256.81;;;9.13;97.39
77062;BME280;65989;51.686;5.138;2023-04-01T00:53:18;99259.97;;;9.15;97.29
77062;BME280;65989;51.686;5.138;2023-04-01T00:55:57;99256.81;;;9.13;97.53
77062;BME280;65989;51.686;5.138;2023-04-01T00:58:25;99274.25;;;9.14;97.32
77062;BME280;65989;51.686;5.138;2023-04-01T01:00:53;99273.19;;;9.15;97.39
77062;BME280;65989;51.686;5.138;2023-04-01T01:03:20;99273.44;;;9.13;97.62
77062;BME280;65989;51.686;5.138;2023-04-01T01:08:21;99278.22;;;9.11;97.36
77062;BME280;65989;51.686;5.138;2023-04-01T01:10:51;99276.19;;;9.08;97.46
77062;BME280;65989;51.686;5.138;2023-04-01T01:13:31;99286.75;;;9.08;97.23
77062;BME280;65989;51.686;5.138;2023-04-01T01:16:06;99288.63;;;9.02;97.30
77062;BME280;65989;51.686;5.138;2023-04-01T01:18:51;99283.66;;;9.01;97.22
77062;BME280;65989;51.686;5.138;2023-04-01T01:24:31;99284.47;;;8.96;97.54
77062;BME280;65989;51.686;5.138;2023-04-01T01:27:04;99292.19;;;8.92;97.22
77062;BME280;65989;51.686;5.138;2023-04-01T01:37:43;99288.31;;;8.85;96.96
77062;BME280;65989;51.686;5.138;2023-04-01T01:40:11;99291.72;;;8.85;97.16
77062;BME280;65989;51.686;5.138;2023-04-01T01:42:41;99290.44;;;8.82;97.14
77062;BME280;65989;51.686;5.138;2023-04-01T01:45:11;99290.44;;;8.82;97.23
77062;BME280;65989;51.686;5.138;2023-04-01T01:47:39;99293.34;;;8.81;97.13
77062;BME280;65989;51.686;5.138;2023-04-01T01:50:07;99295.75;;;8.77;97.12
77062;BME280;65989;51.686;5.138;2023-04-01T01:52:33;99303.13;;;8.80;97.39
77062;BME280;65989;51.686;5.138;2023-04-01T01:54:58;99303.13;;;8.80;97.27
77062;BME280;65989;51.686;5.138;2023-04-01T01:57:31;99302.63;;;8.78;97.30
77062;BME280;65989;51.686;5.138;2023-04-01T02:00:06;99313.47;;;8.77;97.46
77062;BME280;65989;51.686;5.138;2023-04-01T02:02:39;99315.03;;;8.78;97.27
77062;BME280;65989;51.686;5.138;2023-04-01T02:05:06;99314.25;;;8.77;97.27
77062;BME280;65989;51.686;5.138;2023-04-01T02:07:35;99316.66;;;8.74;97.13
77062;BME280;65989;51.686;5.138;2023-04-01T02:10:01;99308.75;;;8.74;97.35
77062;BME280;65989;51.686;5.138;2023-04-01T02:12:28;99306.66;;;8.71;97.34
77062;BME280;65989;51.686;5.138;2023-04-01T02:15:09;99319.00;;;8.75;97.11
77062;BME280;65989;51.686;5.138;2023-04-01T02:17:39;99321.44;;;8.72;97.23
77062;BME280;65989;51.686;5.138;2023-04-01T02:20:13;99323.56;;;8.70;97.25
77062;BME280;65989;51.686;5.138;2023-04-01T02:22:43;99315.91;;;8.68;97.35
77062;BME280;65989;51.686;5.138;2023-04-01T02:25:15;99322.75;;;8.69;97.31
77062;BME280;65989;51.686;5.138;2023-04-01T02:27:44;99320.13;;;8.69;97.26
77062;BME280;65989;51.686;5.138;2023-04-01T02:30:12;99326.97;;;8.70;97.36
77062;BME280;65989;51.686;5.138;2023-04-01T02:32:39;99324.88;;;8.67;97.21
77062;BME280;65989;51.686;5.138;2023-04-01T02:35:07;99333.09;;;8.65;97.37
77062;BME280;65989;51.686;5.138;2023-04-01T02:37:33;99325.44;;;8.64;97.28
77062;BME280;65989;51.686;5.138;2023-04-01T02:40:04;99324.88;;;8.67;97.38
77062;BME280;65989;51.686;5.138;2023-04-01T02:42:31;99321.75;;;8.65;97.38
77062;BME280;65989;51.686;5.138;2023-04-01T02:44:57;99320.97;;;8.64;97.46
77062;BME280;65989;51.686;5.138;2023-04-01T02:47:22;99334.69;;;8.66;97.34
77062;BME280;65989;51.686;5.138;2023-04-01T02:49:48;99335.22;;;8.63;97.39
77062;BME280;65989;51.686;5.138;2023-04-01T02:52:13;99344.22;;;8.62;97.33
77062;BME280;65989;51.686;5.138;2023-04-01T02:54:39;99345.78;;;8.63;97.24
77062;BME280;65989;51.686;5.138;2023-04-01T02:57:04;99340.00;;;8.61;97.28
77062;BME280;65989;51.686;5.138;2023-04-01T02:59:29;99345.00;;;8.63;97.29
77062;BME280;65989;51.686;5.138;2023-04-01T03:01:55;99343.41;;;8.62;97.17
77062;BME280;65989;51.686;5.138;2023-04-01T03:04:20;99339.47;;;8.59;97.22
77062;BME280;65989;51.686;5.138;2023-04-01T03:06:46;99346.13;;;8.57;97.16
77062;BME280;65989;51.686;5.138;2023-04-01T03:09:11;99352.97;;;8.58;97.38
77062;BME280;65989;51.686;5.138;2023-04-01T03:11:36;99368.81;;;8.58;97.50
77062;BME280;65989;51.686;5.138;2023-04-01T03:14:02;99365.63;;;8.61;97.49
77062;BME280;65989;51.686;5.138;2023-04-01T03:16:27;99366.69;;;8.60;97.39
77062;BME280;65989;51.686;5.138;2023-04-01T03:18:53;99366.69;;;8.60;97.41
77062;BME280;65989;51.686;5.138;2023-04-01T03:21:23;99369.03;;;8.61;97.32
77062;BME280;65989;51.686;5.138;2023-04-01T03:23:49;99368.81;;;8.58;97.47
77062;BME280;65989;51.686;5.138;2023-04-01T03:26:14;99373.81;;;8.59;97.36
77062;BME280;65989;51.686;5.138;2023-04-01T03:28:40;99375.16;;;8.57;97.50
77062;BME280;65989;51.686;5.138;2023-04-01T03:31:06;99380.97;;;8.59;97.33
77062;BME280;65989;51.686;5.138;2023-04-01T03:33:32;99371.72;;;8.56;97.32
77062;BME280;65989;51.686;5.138;2023-04-01T03:35:57;99378.34;;;8.54;97.51
77062;BME280;65989;51.686;5.138;2023-04-01T03:38:23;99375.44;;;8.50;97.44
77062;BME280;65989;51.686;5.138;2023-04-01T03:40:48;99381.53;;;8.50;97.24
77062;BME280;65989;51.686;5.138;2023-04-01T03:43:14;99383.13;;;8.46;97.27
77062;BME280;65989;51.686;5.138;2023-04-01T03:45:45;99383.13;;;8.46;97.35
77062;BME280;65989;51.686;5.138;2023-04-01T03:48:11;99388.41;;;8.46;97.43
77062;BME280;65989;51.686;5.138;2023-04-01T03:50:36;99391.59;;;8.48;97.29
77062;BME280;65989;51.686;5.138;2023-04-01T03:53:02;99394.75;;;8.45;97.46
77062;BME280;65989;51.686;5.138;2023-04-01T03:55:27;99393.66;;;8.46;97.47
77062;BME280;65989;51.686;5.138;2023-04-01T03:57:52;99397.38;;;8.45;97.46
77062;BME280;65989;51.686;5.138;2023-04-01T04:00:18;99386.88;;;8.35;97.20
77062;BME280;65989;51.686;5.138;2023-04-01T04:02:44;99402.66;;;8.45;97.37
77062;BME280;65989;51.686;5.138;2023-04-01T04:05:10;99395.03;;;8.44;97.18
77062;BME280;65989;51.686;5.138;2023-04-01T04:07:36;99399.50;;;8.43;97.22
77062;BME280;65989;51.686;5.138;2023-04-01T04:10:01;99401.06;;;8.44;97.32
77062;BME280;65989;51.686;5.138;2023-04-01T04:12:27;99408.22;;;8.44;97.41
77062;BME280;65989;51.686;5.138;2023-04-01T04:14:52;99405.84;;;8.42;97.21
77062;BME280;65989;51.686;5.138;2023-04-01T04:17:18;99411.63;;;8.44;97.45
77062;BME280;65989;51.686;5.138;2023-04-01T04:19:43;99410.09;;;8.38;97.35
77062;BME280;65989;51.686;5.138;2023-04-01T04:22:08;99422.47;;;8.43;97.33
77062;BME280;65989;51.686;5.138;2023-04-01T04:24:35;99427.47;;;8.44;97.41
77062;BME280;65989;51.686;5.138;2023-04-01T04:27:00;99427.47;;;8.44;97.51
77062;BME280;65989;51.686;5.138;2023-04-01T04:29:26;99427.47;;;8.44;97.33
77062;BME280;65989;51.686;5.138;2023-04-01T04:31:51;99430.13;;;8.44;97.57
77062;BME280;65989;51.686;5.138;2023-04-01T04:34:17;99436.47;;;8.43;97.68
77062;BME280;65989;51.686;5.138;2023-04-01T04:36:44;99437.50;;;8.42;97.49
77062;BME280;65989;51.686;5.138;2023-04-01T04:39:10;99433.28;;;8.46;97.50
77062;BME280;65989;51.686;5.138;2023-04-01T04:41:37;99438.03;;;8.44;97.51
77062;BME280;65989;51.686;5.138;2023-04-01T04:44:02;99439.88;;;8.49;97.59
77062;BME280;65989;51.686;5.138;2023-04-01T04:46:28;99446.19;;;8.48;97.69
77062;BME280;65989;51.686;5.138;2023-04-01T04:48:53;99453.31;;;8.47;97.74
77062;BME280;65989;51.686;5.138;2023-04-01T04:51:19;99454.94;;;8.48;97.71
77062;BME280;65989;51.686;5.138;2023-04-01T04:53:45;99453.88;;;8.49;97.64
77062;BME280;65989;51.686;5.138;2023-04-01T04:56:11;99455.97;;;8.47;97.58
77062;BME280;65989;51.686;5.138;2023-04-01T04:58:37;99461.00;;;8.49;97.74
77062;BME280;65989;51.686;5.138;2023-04-01T05:01:08;99474.44;;;8.52;97.90
77062;BME280;65989;51.686;5.138;2023-04-01T05:03:33;99478.69;;;8.54;97.80
77062;BME280;65989;51.686;5.138;2023-04-01T05:05:59;99489.22;;;8.54;97.79
77062;BME280;65989;51.686;5.138;2023-04-01T05:08:24;99487.13;;;8.56;97.77
77062;BME280;65989;51.686;5.138;2023-04-01T05:10:50;99483.97;;;8.54;97.87
77062;BME280;65989;51.686;5.138;2023-04-01T05:13:15;99490.53;;;8.56;97.99
77062;BME280;65989;51.686;5.138;2023-04-01T05:15:41;99498.19;;;8.58;97.79
77062;BME280;65989;51.686;5.138;2023-04-01T05:18:06;99502.94;;;8.61;97.95
77062;BME280;65989;51.686;5.138;2023-04-01T05:20:32;99506.34;;;8.61;97.96
77062;BME280;65989;51.686;5.138;2023-04-01T05:22:58;99507.94;;;8.62;98.06
77062;BME280;65989;51.686;5.138;2023-04-01T05:25:24;99508.69;;;8.63;98.31
77062;BME280;65989;51.686;5.138;2023-04-01T05:27:50;99504.00;;;8.60;98.11
77062;BME280;65989;51.686;5.138;2023-04-01T05:30:15;99517.94;;;8.65;98.03
77062;BME280;65989;51.686;5.138;2023-04-01T05:32:40;99524.25;;;8.70;98.14
77062;BME280;65989;51.686;5.138;2023-04-01T05:35:06;99525.03;;;8.70;98.11
77062;BME280;65989;51.686;5.138;2023-04-01T05:37:34;99522.69;;;8.69;98.30
77062;BME280;65989;51.686;5.138;2023-04-01T05:39:59;99530.84;;;8.72;98.30
77062;BME280;65989;51.686;5.138;2023-04-01T05:42:25;99527.69;;;8.70;98.09
77062;BME280;65989;51.686;5.138;2023-04-01T05:44:50;99542.72;;;8.75;98.36
77062;BME280;65989;51.686;5.138;2023-04-01T05:47:16;99535.06;;;8.73;98.26
77062;BME280;65989;51.686;5.138;2023-04-01T05:49:41;99545.09;;;8.76;98.34
77062;BME280;65989;51.686;5.138;2023-04-01T05:52:06;99539.81;;;8.76;98.32
77062;BME280;65989;51.686;5.138;2023-04-01T05:54:32;99550.38;;;8.76;98.36
77062;BME280;65989;51.686;5.138;2023-04-01T05:56:58;99551.19;;;8.77;98.29
77062;BME280;65989;51.686;5.138;2023-04-01T05:59:23;99556.16;;;8.78;98.42
77062;BME280;65989;51.686;5.138;2023-04-01T06:01:49;99558.00;;;8.78;98.32
77062;BME280;65989;51.686;5.138;2023-04-01T06:04:16;99567.25;;;8.80;98.44
77062;BME280;65989;51.686;5.138;2023-04-01T06:06:43;99572.53;;;8.80;98.42
77062;BME280;65989;51.686;5.138;2023-04-01T06:09:19;99577.53;;;8.82;98.38
77062;BME280;65989;51.686;5.138;2023-04-01T06:20:44;99601.03;;;8.89;98.47
77062;BME280;65989;51.686;5.138;2023-04-01T06:48:18;99630.56;;;8.96;98.42
77062;BME280;65989;51.686;5.138;2023-04-01T06:53:19;99649.31;;;9.00;98.23
77062;BME280;65989;51.686;5.138;2023-04-01T06:55:50;99647.97;;;9.02;98.08
77062;BME280;65989;51.686;5.138;2023-04-01T06:58:41;99651.94;;;9.05;98.21
77062;BME280;65989;51.686;5.138;2023-04-01T07:01:10;99661.97;;;9.08;98.16
77062;BME280;65989;51.686;5.138;2023-04-01T07:03:43;99658.75;;;9.16;98.06
77062;BME280;65989;51.686;5.138;2023-04-01T07:06:30;99658.38;;;9.33;98.18
77062;BME280;65989;51.686;5.138;2023-04-01T07:08:59;99672.84;;;9.46;98.07
77062;BME280;65989;51.686;5.138;2023-04-01T07:11:31;99666.78;;;9.46;97.90
77062;BME280;65989;51.686;5.138;2023-04-01T07:17:04;99673.09;;;9.50;97.62
77062;BME280;65989;51.686;5.138;2023-04-01T07:20:05;99675.16;;;9.58;97.88
77062;BME280;65989;51.686;5.138;2023-04-01T07:22:40;99688.41;;;9.58;97.46
77062;BME280;65989;51.686;5.138;2023-04-01T07:25:17;99682.59;;;9.56;97.81
77062;BME280;65989;51.686;5.138;2023-04-01T07:27:43;99690.22;;;9.63;97.54
77062;BME280;65989;51.686;5.138;2023-04-01T07:30:15;99697.06;;;9.64;97.50
77062;BME280;65989;51.686;5.138;2023-04-01T07:32:52;99697.91;;;9.59;97.47
77062;BME280;65989;51.686;5.138;2023-04-01T07:35:56;99693.91;;;9.62;97.34
77062;BME280;65989;51.686;5.138;2023-04-01T07:43:51;99711.06;;;9.64;97.32
77062;BME280;65989;51.686;5.138;2023-04-01T07:49:11;99716.09;;;9.71;97.11
77062;BME280;65989;51.686;5.138;2023-04-01T07:51:56;99715.53;;;9.74;96.90
77062;BME280;65989;51.686;5.138;2023-04-01T07:54:49;99730.25;;;9.85;96.90
77062;BME280;65989;51.686;5.138;2023-04-01T07:57:21;99727.59;;;9.85;96.83
77062;BME280;65989;51.686;5.138;2023-04-01T08:16:17;99770.81;;;9.70;96.33
77062;BME280;65989;51.686;5.138;2023-04-01T08:21:45;99773.97;;;9.78;95.99
77062;BME280;65989;51.686;5.138;2023-04-01T08:24:34;99786.09;;;9.84;96.22
77062;BME280;65989;51.686;5.138;2023-04-01T08:27:05;99770.25;;;9.79;95.85
77062;BME280;65989;51.686;5.138;2023-04-01T08:29:41;99787.75;;;9.75;96.09
77062;BME280;65989;51.686;5.138;2023-04-01T08:32:11;99795.44;;;9.71;96.00
77062;BME280;65989;51.686;5.138;2023-04-01T08:34:40;99791.22;;;9.70;95.97
77062;BME280;65989;51.686;5.138;2023-04-01T08:37:34;99790.94;;;9.71;95.86
77062;BME280;65989;51.686;5.138;2023-04-01T08:43:11;99799.34;;;9.79;95.81
77062;BME280;65989;51.686;5.138;2023-04-01T08:46:02;99804.91;;;9.77;95.46
77062;BME280;65989;51.686;5.138;2023-04-01T08:54:47;99815.50;;;9.77;95.72
77062;BME280;65989;51.686;5.138;2023-04-01T09:00:23;99827.41;;;9.80;96.03
77062;BME280;65989;51.686;5.138;2023-04-01T09:09:19;99837.97;;;9.80;95.68
77062;BME280;65989;51.686;5.138;2023-04-01T09:25:52;99851.22;;;10.25;95.24
77062;BME280;65989;51.686;5.138;2023-04-01T09:34:03;99858.47;;;10.54;95.05
77062;BME280;65989;51.686;5.138;2023-04-01T09:39:37;99866.53;;;10.73;94.71
77062;BME280;65989;51.686;5.138;2023-04-01T09:44:51;99868.59;;;10.81;94.40
77062;BME280;65989;51.686;5.138;2023-04-01T09:47:42;99872.53;;;10.84;94.32
77062;BME280;65989;51.686;5.138;2023-04-01T10:04:31;99883.97;;;11.09;93.19
77062;BME280;65989;51.686;5.138;2023-04-01T10:12:49;99893.69;;;11.18;92.89
77062;BME280;65989;51.686;5.138;2023-04-01T10:18:43;99896.06;;;11.20;92.26
77062;BME280;65989;51.686;5.138;2023-04-01T10:27:09;99903.41;;;11.77;91.71
77062;BME280;65989;51.686;5.138;2023-04-01T10:52:09;99920.28;;;11.62;89.76
77062;BME280;65989;51.686;5.138;2023-04-01T10:57:34;99920.28;;;11.62;89.42
77062;BME280;65989;51.686;5.138;2023-04-01T11:21:08;99946.72;;;11.18;90.27
77062;BME280;65989;51.686;5.138;2023-04-01T11:23:47;99954.22;;;11.11;90.23
77062;BME280;65989;51.686;5.138;2023-04-01T11:40:27;99976.25;;;11.65;90.90
77062;BME280;65989;51.686;5.138;2023-04-01T11:43:19;99969.81;;;11.72;90.87
77062;BME280;65989;51.686;5.138;2023-04-01T11:45:58;99982.81;;;11.73;90.72
77062;BME280;65989;51.686;5.138;2023-04-01T11:48:54;99984.44;;;11.69;90.72
77062;BME280;65989;51.686;5.138;2023-04-01T11:54:14;99987.78;;;11.56;90.79
77062;BME280;65989;51.686;5.138;2023-04-01T11:59:46;99999.78;;;11.43;90.69
77062;BME280;65989;51.686;5.138;2023-04-01T12:11:17;100010.19;;;11.39;90.65
77062;BME280;65989;51.686;5.138;2023-04-01T12:14:18;100016.03;;;11.36;90.57
77062;BME280;65989;51.686;5.138;2023-04-01T12:22:25;100017.00;;;11.50;90.78
77062;BME280;65989;51.686;5.138;2023-04-01T12:25:22;100032.09;;;11.50;90.81
77062;BME280;65989;51.686;5.138;2023-04-01T12:33:32;100036.63;;;11.49;90.60
77062;BME280;65989;51.686;5.138;2023-04-01T12:41:44;100044.13;;;11.42;90.54
77062;BME280;65989;51.686;5.138;2023-04-01T12:44:29;100048.69;;;11.37;90.56
77062;BME280;65989;51.686;5.138;2023-04-01T12:55:45;100058.69;;;11.10;90.68
77062;BME280;65989;51.686;5.138;2023-04-01T13:01:18;100060.06;;;11.02;90.82
77062;BME280;65989;51.686;5.138;2023-04-01T13:10:06;100082.59;;;11.00;90.80
77062;BME280;65989;51.686;5.138;2023-04-01T13:20:44;100088.38;;;11.12;90.65
77062;BME280;65989;51.686;5.138;2023-04-01T13:23:42;100090.16;;;11.22;90.88
77062;BME280;65989;51.686;5.138;2023-04-01T13:31:29;100098.66;;;11.59;90.23
77062;BME280;65989;51.686;5.138;2023-04-01T13:45:47;100110.88;;;11.55;89.75
77062;BME280;65989;51.686;5.138;2023-04-01T14:13:12;100144.97;;;11.32;89.89
77062;BME280;65989;51.686;5.138;2023-04-01T14:18:41;100148.53;;;11.12;90.25
77062;BME280;65989;51.686;5.138;2023-04-01T14:21:17;100149.88;;;11.09;90.41
77062;BME280;65989;51.686;5.138;2023-04-01T14:34:00;100162.31;;;11.14;91.16
77062;BME280;65989;51.686;5.138;2023-04-01T14:42:45;100172.13;;;11.18;91.31
77062;BME280;65989;51.686;5.138;2023-04-01T14:50:45;100183.28;;;11.15;91.48
77062;BME280;65989;51.686;5.138;2023-04-01T14:53:12;100182.78;;;11.08;91.32
77062;BME280;65989;51.686;5.138;2023-04-01T15:01:08;100188.63;;;11.00;92.08
77062;BME280;65989;51.686;5.138;2023-04-01T15:06:35;100195.75;;;11.10;91.89
77062;BME280;65989;51.686;5.138;2023-04-01T15:09:32;100204.78;;;11.09;92.02
77062;BME280;65989;51.686;5.138;2023-04-01T15:12:35;100204.25;;;11.07;92.02
77062;BME280;65989;51.686;5.138;2023-04-01T15:18:27;100214.91;;;10.91;92.19
77062;BME280;65989;51.686;5.138;2023-04-01T15:24:03;100224.22;;;10.78;92.29
77062;BME280;65989;51.686;5.138;2023-04-01T15:31:59;100218.97;;;10.63;92.53
77062;BME280;65989;51.686;5.138;2023-04-01T15:35:06;100230.63;;;10.61;92.68
77062;BME280;65989;51.686;5.138;2023-04-01T15:37:37;100234.88;;;10.57;92.75
77062;BME280;65989;51.686;5.138;2023-04-01T15:50:57;100253.16;;;10.59;93.42
77062;BME280;65989;51.686;5.138;2023-04-01T15:55:58;100256.09;;;10.52;93.65
77062;BME280;65989;51.686;5.138;2023-04-01T16:01:34;100272.22;;;10.71;94.15
77062;BME280;65989;51.686;5.138;2023-04-01T16:07:04;100268.22;;;11.50;95.13
77062;BME280;65989;51.686;5.138;2023-04-01T16:15:44;100275.94;;;11.52;94.89
77062;BME280;65989;51.686;5.138;2023-04-01T16:23:54;100289.88;;;11.12;94.70
77062;BME280;65989;51.686;5.138;2023-04-01T16:26:38;100303.66;;;11.09;94.80
77062;BME280;65989;51.686;5.138;2023-04-01T16:29:16;100305.28;;;11.00;94.51
77062;BME280;65989;51.686;5.138;2023-04-01T16:31:59;100316.97;;;10.88;94.50
77062;BME280;65989;51.686;5.138;2023-04-01T16:34:35;100314.88;;;10.75;94.58
77062;BME280;65989;51.686;5.138;2023-04-01T16:37:11;100314.63;;;10.56;94.40
77062;BME280;65989;51.686;5.138;2023-04-01T16:47:36;100332.84;;;10.31;94.45
77062;BME280;65989;51.686;5.138;2023-04-01T16:50:21;100330.75;;;10.23;94.53
77062;BME280;65989;51.686;5.138;2023-04-01T16:58:14;100348.72;;;10.11;95.05
77062;BME280;65989;51.686;5.138;2023-04-01T17:00:53;100356.91;;;10.14;94.99
77062;BME280;65989;51.686;5.138;2023-04-01T17:03:27;100363.81;;;10.15;95.06
77062;BME280;65989;51.686;5.138;2023-04-01T17:06:07;100374.13;;;10.07;94.96
77062;BME280;65989;51.686;5.138;2023-04-01T17:17:31;100396.81;;;9.82;95.16
77062;BME280;65989;51.686;5.138;2023-04-01T17:22:55;100401.25;;;9.71;95.26
77062;BME280;65989;51.686;5.138;2023-04-01T17:25:39;100405.72;;;9.65;95.37
77062;BME280;65989;51.686;5.138;2023-04-01T17:42:06;100443.16;;;9.41;95.48
77062;BME280;65989;51.686;5.138;2023-04-01T17:50:02;100465.03;;;9.32;95.69
77062;BME280;65989;51.686;5.138;2023-04-01T17:52:39;100468.44;;;9.27;95.76
77062;BME280;65989;51.686;5.138;2023-04-01T17:58:22;100484.72;;;9.14;95.93
77062;BME280;65989;51.686;5.138;2023-04-01T18:04:14;100499.22;;;9.06;96.21
77062;BME280;65989;51.686;5.138;2023-04-01T18:17:27;100532.16;;;8.98;96.31
77062;BME280;65989;51.686;5.138;2023-04-01T18:20:50;100540.41;;;9.02;96.38
77062;BME280;65989;51.686;5.138;2023-04-01T18:25:41;100554.09;;;8.99;96.46
77062;BME280;65989;51.686;5.138;2023-04-01T18:30:40;100569.56;;;8.85;96.70
77062;BME280;65989;51.686;5.138;2023-04-01T18:33:29;100575.81;;;8.78;96.52
77062;BME280;65989;51.686;5.138;2023-04-01T18:38:36;100586.03;;;8.70;96.77
77062;BME280;65989;51.686;5.138;2023-04-01T18:41:16;100593.69;;;8.71;96.86
77062;BME280;65989;51.686;5.138;2023-04-01T18:46:46;100610.03;;;8.68;96.97
77062;BME280;65989;51.686;5.138;2023-04-01T18:49:20;100620.78;;;8.61;96.91
77062;BME280;65989;51.686;5.138;2023-04-01T18:51:55;100627.13;;;8.60;96.92
77062;BME280;65989;51.686;5.138;2023-04-01T18:54:42;100629.38;;;8.51;96.73
77062;BME280;65989;51.686;5.138;2023-04-01T18:57:13;100634.56;;;8.46;97.15
77062;BME280;65989;51.686;5.138;2023-04-01T18:59:42;100636.66;;;8.44;96.95
77062;BME280;65989;51.686;5.138;2023-04-01T19:05:09;100655.06;;;8.39;96.74
77062;BME280;65989;51.686;5.138;2023-04-01T19:21:21;100694.03;;;8.32;96.96
77062;BME280;65989;51.686;5.138;2023-04-01T19:26:23;100702.19;;;8.30;97.28
77062;BME280;65989;51.686;5.138;2023-04-01T19:29:34;100710.84;;;8.26;97.15
77062;BME280;65989;51.686;5.138;2023-04-01T19:37:55;100718.91;;;8.19;96.78
77062;BME280;65989;51.686;5.138;2023-04-01T19:40:41;100721.47;;;8.14;96.78
77062;BME280;65989;51.686;5.138;2023-04-01T19:51:30;100744.03;;;8.04;96.46
77062;BME280;65989;51.686;5.138;2023-04-01T19:53:59;100736.59;;;8.01;96.55
77062;BME280;65989;51.686;5.138;2023-04-01T19:56:51;100747.84;;;7.97;96.34
77062;BME280;65989;51.686;5.138;2023-04-01T19:59:50;100756.47;;;7.92;96.77
77062;BME280;65989;51.686;5.138;2023-04-01T20:05:28;100783.78;;;7.86;96.53
77062;BME280;65989;51.686;5.138;2023-04-01T20:08:03;100775.56;;;7.82;96.43
77062;BME280;65989;51.686;5.138;2023-04-01T20:10:41;100784.50;;;7.81;96.35
77062;BME280;65989;51.686;5.138;2023-04-01T20:13:27;100791.13;;;7.84;96.36
77062;BME280;65989;51.686;5.138;2023-04-01T20:16:03;100798.94;;;7.78;96.49
77062;BME280;65989;51.686;5.138;2023-04-01T20:18:48;100793.13;;;7.76;96.44
77062;BME280;65989;51.686;5.138;2023-04-01T20:21:40;100803.69;;;7.76;96.49
77062;BME280;65989;51.686;5.138;2023-04-01T20:24:28;100811.00;;;7.86;96.61
77062;BME280;65989;51.686;5.138;2023-04-01T20:27:14;100818.91;;;7.86;96.44
77062;BME280;65989;51.686;5.138;2023-04-01T20:33:14;100837.84;;;7.83;96.29
77062;BME280;65989;51.686;5.138;2023-04-01T20:41:45;100856.19;;;7.78;96.21
77062;BME280;65989;51.686;5.138;2023-04-01T20:47:50;100868.59;;;7.77;96.07
77062;BME280;65989;51.686;5.138;2023-04-01T20:50:34;100870.00;;;7.68;96.06
77062;BME280;65989;51.686;5.138;2023-04-01T20:53:19;100880.53;;;7.68;96.01
77062;BME280;65989;51.686;5.138;2023-04-01T20:58:38;100882.50;;;7.61;96.00
77062;BME280;65989;51.686;5.138;2023-04-01T21:12:17;100918.16;;;7.52;95.54
77062;BME280;65989;51.686;5.138;2023-04-01T21:17:35;100925.84;;;7.53;95.62
77062;BME280;65989;51.686;5.138;2023-04-01T21:20:40;100946.94;;;7.53;95.85
77062;BME280;65989;51.686;5.138;2023-04-01T21:29:03;100955.78;;;7.47;95.62
77062;BME280;65989;51.686;5.138;2023-04-01T21:31:40;100961.81;;;7.36;95.66
77062;BME280;65989;51.686;5.138;2023-04-01T21:34:43;100974.53;;;7.27;95.61
77062;BME280;65989;51.686;5.138;2023-04-01T21:42:53;101000.88;;;7.15;95.71
77062;BME280;65989;51.686;5.138;2023-04-01T21:56:49;101013.50;;;6.82;95.88
77062;BME280;65989;51.686;5.138;2023-04-01T22:05:10;101026.16;;;6.73;95.90
77062;BME280;65989;51.686;5.138;2023-04-01T22:07:50;101031.69;;;6.72;95.76
77062;BME280;65989;51.686;5.138;2023-04-01T22:10:21;101040.00;;;6.69;96.26
77062;BME280;65989;51.686;5.138;2023-04-01T22:18:15;101058.66;;;6.67;96.19
77062;BME280;65989;51.686;5.138;2023-04-01T22:20:53;101067.13;;;6.69;96.18
77062;BME280;65989;51.686;5.138;2023-04-01T22:23:47;101066.56;;;6.67;96.23
77062;BME280;65989;51.686;5.138;2023-04-01T22:26:25;101074.34;;;6.62;96.08
77062;BME280;65989;51.686;5.138;2023-04-01T22:32:13;101087.56;;;6.55;96.19
77062;BME280;65989;51.686;5.138;2023-04-01T22:35:00;101094.66;;;6.55;96.06
77062;BME280;65989;51.686;5.138;2023-04-01T22:37:57;101096.75;;;6.46;96.24
77062;BME280;65989;51.686;5.138;2023-04-01T22:43:42;101111.84;;;6.39;96.19
77062;BME280;65989;51.686;5.138;2023-04-01T22:49:11;101118.03;;;6.26;95.98
77062;BME280;65989;51.686;5.138;2023-04-01T22:51:49;101112.97;;;6.24;96.22
77062;BME280;65989;51.686;5.138;2023-04-01T22:54:29;101115.03;;;6.22;96.07
77062;BME280;65989;51.686;5.138;2023-04-01T22:57:01;101122.75;;;6.17;96.07
77062;BME280;65989;51.686;5.138;2023-04-01T23:02:27;101133.50;;;6.16;96.07
77062;BME280;65989;51.686;5.138;2023-04-01T23:04:56;101141.41;;;6.16;96.02
77062;BME280;65989;51.686;5.138;2023-04-01T23:07:45;101140.16;;;6.18;96.31
77062;BME280;65989;51.686;5.138;2023-04-01T23:10:31;101147.09;;;6.12;95.93